sensor_id;sensor_type;location;lat;lon;timestamp;temperature;humidity
27858;DHT22;16852;51.446;6.528;2022-12-10T00:01:32;2.80;99.90
27858;DHT22;16852;51.446;6.528;2022-12-10T00:03:33;2.70;99.90
27858;DHT22;16852;51.446;6.528;2022-12-10T00:05:34;2.70;99.90
27858;DHT22;16852;51.446;6.528;2022-12-10T00:07:35;2.70;99.90
27858;DHT22;16852;51.446;6.528;2022-12-10T00:09:36;2.70;99.90
27858;DHT22;16852;51.446;6.528;2022-12-10T00:11:36;2.70;99.90
27858;DHT22;16852;51.446;6.528;2022-12-10T00:13:37;2.70;99.90
27858;DHT22;16852;51.446;6.528;2022-12-10T00:15:38;2.70;99.90
27858;DHT22;16852;51.446;6.528;2022-12-10T00:17:39;2.70;99.90
27858;DHT22;16852;51.446;6.528;2022-12-10T00:19:39;2.70;99.90
27858;DHT22;16852;51.446;6.528;2022-12-10T00:21:40;2.60;99.90
27858;DHT22;16852;51.446;6.528;2022-12-10T00:23:42;2.60;99.90
27858;DHT22;16852;51.446;6.528;2022-12-10T00:25:43;2.60;99.90
27858;DHT22;16852;51.446;6.528;2022-12-10T00:27:43;2.60;99.90
27858;DHT22;16852;51.446;6.528;2022-12-10T00:29:44;2.60;99.90
27858;DHT22;16852;51.446;6.528;2022-12-10T00:31:44;2.50;99.90
27858;DHT22;16852;51.446;6.528;2022-12-10T00:33:46;2.50;99.90
27858;DHT22;16852;51.446;6.528;2022-12-10T00:35:46;2.50;99.90
27858;DHT22;16852;51.446;6.528;2022-12-10T00:37:47;2.50;99.90
27858;DHT22;16852;51.446;6.528;2022-12-10T00:39:47;2.50;99.90
27858;DHT22;16852;51.446;6.528;2022-12-10T00:41:48;2.50;99.90
27858;DHT22;16852;51.446;6.528;2022-12-10T00:43:49;2.40;99.90
27858;DHT22;16852;51.446;6.528;2022-12-10T00:45:50;2.40;99.90
27858;DHT22;16852;51.446;6.528;2022-12-10T00:47:50;2.40;99.90
27858;DHT22;16852;51.446;6.528;2022-12-10T00:49:51;2.40;99.90
27858;DHT22;16852;51.446;6.528;2022-12-10T00:51:52;2.40;99.90
27858;DHT22;16852;51.446;6.528;2022-12-10T00:53:54;2.30;99.90
27858;DHT22;16852;51.446;6.528;2022-12-10T00:55:55;2.30;99.90
27858;DHT22;16852;51.446;6.528;2022-12-10T00:57:55;2.30;99.90
27858;DHT22;16852;51.446;6.528;2022-12-10T00:59:56;2.30;99.90
27858;DHT22;16852;51.446;6.528;2022-12-10T01:01:57;2.30;99.90
27858;DHT22;16852;51.446;6.528;2022-12-10T01:04:03;2.20;99.90
27858;DHT22;16852;51.446;6.528;2022-12-10T01:06:09;2.20;99.90
27858;DHT22;16852;51.446;6.528;2022-12-10T01:08:10;2.20;99.90
27858;DHT22;16852;51.446;6.528;2022-12-10T01:10:10;2.20;99.90
27858;DHT22;16852;51.446;6.528;2022-12-10T01:12:11;2.20;99.90
27858;DHT22;16852;51.446;6.528;2022-12-10T01:14:17;2.20;99.90
27858;DHT22;16852;51.446;6.528;2022-12-10T01:16:19;2.20;99.90
27858;DHT22;16852;51.446;6.528;2022-12-10T01:18:20;2.20;99.90
27858;DHT22;16852;51.446;6.528;2022-12-10T01:20:20;2.20;99.90
27858;DHT22;16852;51.446;6.528;2022-12-10T01:22:21;2.20;99.90
27858;DHT22;16852;51.446;6.528;2022-12-10T01:24:23;2.20;99.90
27858;DHT22;16852;51.446;6.528;2022-12-10T01:26:27;2.10;99.90
27858;DHT22;16852;51.446;6.528;2022-12-10T01:28:33;2.10;99.90
27858;DHT22;16852;51.446;6.528;2022-12-10T01:30:33;2.10;99.90
27858;DHT22;16852;51.446;6.528;2022-12-10T01:32:34;2.10;99.90
27858;DHT22;16852;51.446;6.528;2022-12-10T01:34:34;2.10;99.90
27858;DHT22;16852;51.446;6.528;2022-12-10T01:36:40;2.10;99.90
27858;DHT22;16852;51.446;6.528;2022-12-10T01:38:42;2.10;99.90
27858;DHT22;16852;51.446;6.528;2022-12-10T01:40:42;2.10;99.90
27858;DHT22;16852;51.446;6.528;2022-12-10T01:42:43;2.10;99.90
27858;DHT22;16852;51.446;6.528;2022-12-10T01:46:46;2.10;99.90
27858;DHT22;16852;51.446;6.528;2022-12-10T01:48:47;2.10;99.90
27858;DHT22;16852;51.446;6.528;2022-12-10T01:50:48;2.10;99.90
27858;DHT22;16852;51.446;6.528;2022-12-10T01:52:49;2.10;99.90
27858;DHT22;16852;51.446;6.528;2022-12-10T01:54:49;2.10;99.90
27858;DHT22;16852;51.446;6.528;2022-12-10T01:57:01;2.00;99.90
27858;DHT22;16852;51.446;6.528;2022-12-10T01:59:02;2.00;99.90
27858;DHT22;16852;51.446;6.528;2022-12-10T02:05:51;2.00;99.90
27858;DHT22;16852;51.446;6.528;2022-12-10T02:15:10;2.00;99.90
27858;DHT22;16852;51.446;6.528;2022-12-10T02:17:14;1.90;99.90
27858;DHT22;16852;51.446;6.528;2022-12-10T02:20:07;1.90;99.90
27858;DHT22;16852;51.446;6.528;2022-12-10T02:21:44;1.90;99.90
27858;DHT22;16852;51.446;6.528;2022-12-10T02:23:54;1.90;99.90
27858;DHT22;16852;51.446;6.528;2022-12-10T02:26:13;1.90;99.90
27858;DHT22;16852;51.446;6.528;2022-12-10T02:28:33;1.90;99.90
27858;DHT22;16852;51.446;6.528;2022-12-10T02:30:39;1.90;99.90
27858;DHT22;16852;51.446;6.528;2022-12-10T02:32:41;1.90;99.90
27858;DHT22;16852;51.446;6.528;2022-12-10T02:34:47;1.90;99.90
27858;DHT22;16852;51.446;6.528;2022-12-10T02:36:51;1.90;99.90
27858;DHT22;16852;51.446;6.528;2022-12-10T02:38:52;1.90;99.90
27858;DHT22;16852;51.446;6.528;2022-12-10T02:40:59;1.90;99.90
27858;DHT22;16852;51.446;6.528;2022-12-10T02:43:01;1.90;99.90
27858;DHT22;16852;51.446;6.528;2022-12-10T02:45:02;1.90;99.90
27858;DHT22;16852;51.446;6.528;2022-12-10T02:47:03;1.90;99.90
27858;DHT22;16852;51.446;6.528;2022-12-10T02:49:06;1.90;99.90
27858;DHT22;16852;51.446;6.528;2022-12-10T02:51:07;1.90;99.90
27858;DHT22;16852;51.446;6.528;2022-12-10T02:53:07;1.90;99.90
27858;DHT22;16852;51.446;6.528;2022-12-10T02:55:11;1.90;99.90
27858;DHT22;16852;51.446;6.528;2022-12-10T02:57:21;1.90;99.90
27858;DHT22;16852;51.446;6.528;2022-12-10T02:59:33;1.90;99.90
27858;DHT22;16852;51.446;6.528;2022-12-10T03:01:42;1.90;99.90
27858;DHT22;16852;51.446;6.528;2022-12-10T03:03:50;1.90;99.90
27858;DHT22;16852;51.446;6.528;2022-12-10T03:06:17;1.90;99.90
27858;DHT22;16852;51.446;6.528;2022-12-10T03:12:58;1.90;99.90
27858;DHT22;16852;51.446;6.528;2022-12-10T03:15:04;1.90;99.90
27858;DHT22;16852;51.446;6.528;2022-12-10T03:17:05;1.80;99.90
27858;DHT22;16852;51.446;6.528;2022-12-10T03:19:15;1.80;99.90
27858;DHT22;16852;51.446;6.528;2022-12-10T03:21:18;1.80;99.90
27858;DHT22;16852;51.446;6.528;2022-12-10T03:23:19;1.80;99.90
27858;DHT22;16852;51.446;6.528;2022-12-10T03:25:24;1.90;99.90
27858;DHT22;16852;51.446;6.528;2022-12-10T03:27:25;1.80;99.90
27858;DHT22;16852;51.446;6.528;2022-12-10T03:29:30;1.90;99.90
27858;DHT22;16852;51.446;6.528;2022-12-10T03:31:32;1.90;99.90
27858;DHT22;16852;51.446;6.528;2022-12-10T03:33:34;1.90;99.90
27858;DHT22;16852;51.446;6.528;2022-12-10T03:35:35;1.90;99.90
27858;DHT22;16852;51.446;6.528;2022-12-10T03:37:36;1.90;99.90
27858;DHT22;16852;51.446;6.528;2022-12-10T03:39:37;1.90;99.90
27858;DHT22;16852;51.446;6.528;2022-12-10T03:41:38;1.90;99.90
27858;DHT22;16852;51.446;6.528;2022-12-10T03:43:56;1.90;99.90
27858;DHT22;16852;51.446;6.528;2022-12-10T03:45:57;1.90;99.90
27858;DHT22;16852;51.446;6.528;2022-12-10T03:47:58;1.90;99.90
27858;DHT22;16852;51.446;6.528;2022-12-10T03:49:58;1.90;99.90
27858;DHT22;16852;51.446;6.528;2022-12-10T03:51:59;1.90;99.90
27858;DHT22;16852;51.446;6.528;2022-12-10T03:53:59;1.90;99.90
27858;DHT22;16852;51.446;6.528;2022-12-10T03:56:00;1.90;99.90
27858;DHT22;16852;51.446;6.528;2022-12-10T03:58:00;1.90;99.90
27858;DHT22;16852;51.446;6.528;2022-12-10T04:00:02;1.90;99.90
27858;DHT22;16852;51.446;6.528;2022-12-10T04:02:03;1.90;99.90
27858;DHT22;16852;51.446;6.528;2022-12-10T04:04:04;1.90;99.90
27858;DHT22;16852;51.446;6.528;2022-12-10T04:06:08;1.90;99.90
27858;DHT22;16852;51.446;6.528;2022-12-10T04:08:09;1.80;99.90
27858;DHT22;16852;51.446;6.528;2022-12-10T04:10:09;1.90;99.90
27858;DHT22;16852;51.446;6.528;2022-12-10T04:12:10;1.80;99.90
27858;DHT22;16852;51.446;6.528;2022-12-10T04:14:11;1.90;99.90
27858;DHT22;16852;51.446;6.528;2022-12-10T04:16:32;1.80;99.90
27858;DHT22;16852;51.446;6.528;2022-12-10T04:18:33;1.80;99.90
27858;DHT22;16852;51.446;6.528;2022-12-10T04:20:33;1.80;99.90
27858;DHT22;16852;51.446;6.528;2022-12-10T04:22:52;1.80;99.90
27858;DHT22;16852;51.446;6.528;2022-12-10T04:25:12;1.80;99.90
27858;DHT22;16852;51.446;6.528;2022-12-10T04:27:35;1.80;99.90
27858;DHT22;16852;51.446;6.528;2022-12-10T04:29:36;1.80;99.90
27858;DHT22;16852;51.446;6.528;2022-12-10T04:31:37;1.80;99.90
27858;DHT22;16852;51.446;6.528;2022-12-10T04:33:37;1.80;99.90
27858;DHT22;16852;51.446;6.528;2022-12-10T04:35:38;1.80;99.90
27858;DHT22;16852;51.446;6.528;2022-12-10T04:37:39;1.70;99.90
27858;DHT22;16852;51.446;6.528;2022-12-10T04:39:40;1.70;99.90
27858;DHT22;16852;51.446;6.528;2022-12-10T04:41:43;1.70;99.90
27858;DHT22;16852;51.446;6.528;2022-12-10T04:43:44;1.70;99.90
27858;DHT22;16852;51.446;6.528;2022-12-10T04:45:44;1.70;99.90
27858;DHT22;16852;51.446;6.528;2022-12-10T04:47:45;1.60;99.90
27858;DHT22;16852;51.446;6.528;2022-12-10T04:49:45;1.60;99.90
27858;DHT22;16852;51.446;6.528;2022-12-10T04:51:46;1.60;99.90
27858;DHT22;16852;51.446;6.528;2022-12-10T04:53:47;1.60;99.90
27858;DHT22;16852;51.446;6.528;2022-12-10T04:55:47;1.60;99.90
27858;DHT22;16852;51.446;6.528;2022-12-10T04:57:48;1.60;99.90
27858;DHT22;16852;51.446;6.528;2022-12-10T04:59:49;1.60;99.90
27858;DHT22;16852;51.446;6.528;2022-12-10T05:01:50;1.60;99.90
27858;DHT22;16852;51.446;6.528;2022-12-10T05:03:51;1.60;99.90
27858;DHT22;16852;51.446;6.528;2022-12-10T05:05:51;1.60;99.90
27858;DHT22;16852;51.446;6.528;2022-12-10T05:07:52;1.60;99.90
27858;DHT22;16852;51.446;6.528;2022-12-10T05:09:52;1.60;99.90
27858;DHT22;16852;51.446;6.528;2022-12-10T05:11:53;1.50;99.90
27858;DHT22;16852;51.446;6.528;2022-12-10T05:13:54;1.50;99.90
27858;DHT22;16852;51.446;6.528;2022-12-10T05:15:56;1.50;99.90
27858;DHT22;16852;51.446;6.528;2022-12-10T05:17:56;1.50;99.90
27858;DHT22;16852;51.446;6.528;2022-12-10T05:19:57;1.50;99.90
27858;DHT22;16852;51.446;6.528;2022-12-10T05:21:58;1.50;99.90
27858;DHT22;16852;51.446;6.528;2022-12-10T05:24:25;1.50;99.90
27858;DHT22;16852;51.446;6.528;2022-12-10T05:26:25;1.40;99.90
27858;DHT22;16852;51.446;6.528;2022-12-10T05:28:26;1.40;99.90
27858;DHT22;16852;51.446;6.528;2022-12-10T05:30:27;1.40;99.90
27858;DHT22;16852;51.446;6.528;2022-12-10T05:32:28;1.40;99.90
27858;DHT22;16852;51.446;6.528;2022-12-10T05:34:28;1.40;99.90
27858;DHT22;16852;51.446;6.528;2022-12-10T05:36:30;1.40;99.90
27858;DHT22;16852;51.446;6.528;2022-12-10T05:38:33;1.40;99.90
27858;DHT22;16852;51.446;6.528;2022-12-10T05:40:37;1.40;99.90
27858;DHT22;16852;51.446;6.528;2022-12-10T05:42:37;1.50;99.90
27858;DHT22;16852;51.446;6.528;2022-12-10T05:44:38;1.40;99.90
27858;DHT22;16852;51.446;6.528;2022-12-10T05:46:38;1.50;99.90
27858;DHT22;16852;51.446;6.528;2022-12-10T05:48:39;1.50;99.90
27858;DHT22;16852;51.446;6.528;2022-12-10T05:50:40;1.50;99.90
27858;DHT22;16852;51.446;6.528;2022-12-10T05:52:41;1.50;99.90
27858;DHT22;16852;51.446;6.528;2022-12-10T05:54:42;1.50;99.90
27858;DHT22;16852;51.446;6.528;2022-12-10T05:56:42;1.50;99.90
27858;DHT22;16852;51.446;6.528;2022-12-10T05:58:44;1.50;99.90
27858;DHT22;16852;51.446;6.528;2022-12-10T06:00:45;1.50;99.90
27858;DHT22;16852;51.446;6.528;2022-12-10T06:02:46;1.50;99.90
27858;DHT22;16852;51.446;6.528;2022-12-10T06:04:46;1.60;99.90
27858;DHT22;16852;51.446;6.528;2022-12-10T06:06:47;1.60;99.90
27858;DHT22;16852;51.446;6.528;2022-12-10T06:08:49;1.60;99.90
27858;DHT22;16852;51.446;6.528;2022-12-10T06:10:49;1.60;99.90
27858;DHT22;16852;51.446;6.528;2022-12-10T06:12:50;1.50;99.90
27858;DHT22;16852;51.446;6.528;2022-12-10T06:14:50;1.60;99.90
27858;DHT22;16852;51.446;6.528;2022-12-10T06:16:51;1.60;99.90
27858;DHT22;16852;51.446;6.528;2022-12-10T06:18:52;1.60;99.90
27858;DHT22;16852;51.446;6.528;2022-12-10T06:20:52;1.60;99.90
27858;DHT22;16852;51.446;6.528;2022-12-10T06:22:53;1.60;99.90
27858;DHT22;16852;51.446;6.528;2022-12-10T06:24:54;1.60;99.90
27858;DHT22;16852;51.446;6.528;2022-12-10T06:26:54;1.60;99.90
27858;DHT22;16852;51.446;6.528;2022-12-10T06:28:55;1.60;99.90
27858;DHT22;16852;51.446;6.528;2022-12-10T06:30:58;1.60;99.90
27858;DHT22;16852;51.446;6.528;2022-12-10T06:32:59;1.60;99.90
27858;DHT22;16852;51.446;6.528;2022-12-10T06:34:59;1.60;99.90
27858;DHT22;16852;51.446;6.528;2022-12-10T06:37:00;1.60;99.90
27858;DHT22;16852;51.446;6.528;2022-12-10T06:39:00;1.60;99.90
27858;DHT22;16852;51.446;6.528;2022-12-10T06:41:05;1.60;99.90
27858;DHT22;16852;51.446;6.528;2022-12-10T06:43:06;1.50;99.90
27858;DHT22;16852;51.446;6.528;2022-12-10T06:45:07;1.50;99.90
27858;DHT22;16852;51.446;6.528;2022-12-10T06:47:08;1.50;99.90
27858;DHT22;16852;51.446;6.528;2022-12-10T06:49:08;1.50;99.90
27858;DHT22;16852;51.446;6.528;2022-12-10T06:51:11;1.60;99.90
27858;DHT22;16852;51.446;6.528;2022-12-10T06:53:11;1.60;99.90
27858;DHT22;16852;51.446;6.528;2022-12-10T06:55:12;1.50;99.90
27858;DHT22;16852;51.446;6.528;2022-12-10T06:57:13;1.50;99.90
27858;DHT22;16852;51.446;6.528;2022-12-10T06:59:13;1.50;99.90
27858;DHT22;16852;51.446;6.528;2022-12-10T07:01:20;1.50;99.90
27858;DHT22;16852;51.446;6.528;2022-12-10T07:03:21;1.50;99.90
27858;DHT22;16852;51.446;6.528;2022-12-10T07:05:21;1.50;99.90
27858;DHT22;16852;51.446;6.528;2022-12-10T07:07:22;1.50;99.90
27858;DHT22;16852;51.446;6.528;2022-12-10T07:09:23;1.60;99.90
27858;DHT22;16852;51.446;6.528;2022-12-10T07:11:24;1.60;99.90
27858;DHT22;16852;51.446;6.528;2022-12-10T07:13:25;1.50;99.90
27858;DHT22;16852;51.446;6.528;2022-12-10T07:15:26;1.50;99.90
27858;DHT22;16852;51.446;6.528;2022-12-10T07:17:28;1.50;99.90
27858;DHT22;16852;51.446;6.528;2022-12-10T07:19:29;1.40;99.90
27858;DHT22;16852;51.446;6.528;2022-12-10T07:21:31;1.40;99.90
27858;DHT22;16852;51.446;6.528;2022-12-10T07:23:32;1.40;99.90
27858;DHT22;16852;51.446;6.528;2022-12-10T07:25:33;1.40;99.90
27858;DHT22;16852;51.446;6.528;2022-12-10T07:27:34;1.40;99.90
27858;DHT22;16852;51.446;6.528;2022-12-10T07:29:35;1.40;99.90
27858;DHT22;16852;51.446;6.528;2022-12-10T07:31:35;1.40;99.90
27858;DHT22;16852;51.446;6.528;2022-12-10T07:33:36;1.40;99.90
27858;DHT22;16852;51.446;6.528;2022-12-10T07:35:40;1.40;99.90
27858;DHT22;16852;51.446;6.528;2022-12-10T07:37:41;1.40;99.90
27858;DHT22;16852;51.446;6.528;2022-12-10T07:39:41;1.40;99.90
27858;DHT22;16852;51.446;6.528;2022-12-10T07:41:46;1.50;99.90
27858;DHT22;16852;51.446;6.528;2022-12-10T07:43:47;1.40;99.90
27858;DHT22;16852;51.446;6.528;2022-12-10T07:45:48;1.40;99.90
27858;DHT22;16852;51.446;6.528;2022-12-10T07:47:48;1.40;99.90
27858;DHT22;16852;51.446;6.528;2022-12-10T07:49:49;1.30;99.90
27858;DHT22;16852;51.446;6.528;2022-12-10T07:51:50;1.30;99.90
27858;DHT22;16852;51.446;6.528;2022-12-10T07:53:52;1.40;99.90
27858;DHT22;16852;51.446;6.528;2022-12-10T07:55:53;1.40;99.90
27858;DHT22;16852;51.446;6.528;2022-12-10T07:57:54;1.30;99.90
27858;DHT22;16852;51.446;6.528;2022-12-10T07:59:54;1.30;99.90
27858;DHT22;16852;51.446;6.528;2022-12-10T08:01:55;1.40;99.90
27858;DHT22;16852;51.446;6.528;2022-12-10T08:03:56;1.40;99.90
27858;DHT22;16852;51.446;6.528;2022-12-10T08:06:16;1.40;99.90
27858;DHT22;16852;51.446;6.528;2022-12-10T08:08:17;1.40;99.90
27858;DHT22;16852;51.446;6.528;2022-12-10T08:10:18;1.40;99.90
27858;DHT22;16852;51.446;6.528;2022-12-10T08:12:19;1.30;99.90
27858;DHT22;16852;51.446;6.528;2022-12-10T08:14:20;1.30;99.90
27858;DHT22;16852;51.446;6.528;2022-12-10T08:16:22;1.30;99.90
27858;DHT22;16852;51.446;6.528;2022-12-10T08:18:23;1.30;99.90
27858;DHT22;16852;51.446;6.528;2022-12-10T08:20:24;1.20;99.90
27858;DHT22;16852;51.446;6.528;2022-12-10T08:22:24;1.20;99.90
27858;DHT22;16852;51.446;6.528;2022-12-10T08:24:25;1.20;99.90
27858;DHT22;16852;51.446;6.528;2022-12-10T08:26:31;1.20;99.90
27858;DHT22;16852;51.446;6.528;2022-12-10T08:28:33;1.30;99.90
27858;DHT22;16852;51.446;6.528;2022-12-10T08:30:33;1.30;99.90
27858;DHT22;16852;51.446;6.528;2022-12-10T08:32:34;1.30;99.90
27858;DHT22;16852;51.446;6.528;2022-12-10T08:34:34;1.30;99.90
27858;DHT22;16852;51.446;6.528;2022-12-10T08:36:35;1.40;99.90
27858;DHT22;16852;51.446;6.528;2022-12-10T08:38:36;1.40;99.90
27858;DHT22;16852;51.446;6.528;2022-12-10T08:40:41;1.40;99.90
27858;DHT22;16852;51.446;6.528;2022-12-10T08:42:41;1.50;99.90
27858;DHT22;16852;51.446;6.528;2022-12-10T08:44:42;1.50;99.90
27858;DHT22;16852;51.446;6.528;2022-12-10T08:46:43;1.50;99.90
27858;DHT22;16852;51.446;6.528;2022-12-10T08:48:43;1.50;99.90
27858;DHT22;16852;51.446;6.528;2022-12-10T08:50:44;1.50;99.90
27858;DHT22;16852;51.446;6.528;2022-12-10T08:52:45;1.40;99.90
27858;DHT22;16852;51.446;6.528;2022-12-10T08:54:46;1.40;99.90
27858;DHT22;16852;51.446;6.528;2022-12-10T08:56:46;1.40;99.90
27858;DHT22;16852;51.446;6.528;2022-12-10T08:58:47;1.40;99.90
27858;DHT22;16852;51.446;6.528;2022-12-10T09:00:48;1.40;99.90
27858;DHT22;16852;51.446;6.528;2022-12-10T09:02:49;1.40;99.90
27858;DHT22;16852;51.446;6.528;2022-12-10T09:04:50;1.50;99.90
27858;DHT22;16852;51.446;6.528;2022-12-10T09:06:50;1.50;99.90
27858;DHT22;16852;51.446;6.528;2022-12-10T09:08:53;1.50;99.90
27858;DHT22;16852;51.446;6.528;2022-12-10T09:10:54;1.50;99.90
27858;DHT22;16852;51.446;6.528;2022-12-10T09:12:54;1.50;99.90
27858;DHT22;16852;51.446;6.528;2022-12-10T09:14:55;1.50;99.90
27858;DHT22;16852;51.446;6.528;2022-12-10T09:16:56;1.50;99.90
27858;DHT22;16852;51.446;6.528;2022-12-10T09:18:58;1.60;99.90
27858;DHT22;16852;51.446;6.528;2022-12-10T09:20:59;1.60;99.90
27858;DHT22;16852;51.446;6.528;2022-12-10T09:22:59;1.60;99.90
27858;DHT22;16852;51.446;6.528;2022-12-10T09:25:00;1.60;99.90
27858;DHT22;16852;51.446;6.528;2022-12-10T09:27:01;1.60;99.90
27858;DHT22;16852;51.446;6.528;2022-12-10T09:29:02;1.70;99.90
27858;DHT22;16852;51.446;6.528;2022-12-10T09:31:04;1.70;99.90
27858;DHT22;16852;51.446;6.528;2022-12-10T09:33:05;1.70;99.90
27858;DHT22;16852;51.446;6.528;2022-12-10T09:35:06;1.60;99.90
27858;DHT22;16852;51.446;6.528;2022-12-10T09:37:07;1.50;99.90
27858;DHT22;16852;51.446;6.528;2022-12-10T09:39:08;1.50;99.90
27858;DHT22;16852;51.446;6.528;2022-12-10T09:43:48;1.50;99.90
27858;DHT22;16852;51.446;6.528;2022-12-10T09:53:19;1.50;99.90
27858;DHT22;16852;51.446;6.528;2022-12-10T09:55:31;1.50;99.90
27858;DHT22;16852;51.446;6.528;2022-12-10T09:57:41;1.40;99.90
27858;DHT22;16852;51.446;6.528;2022-12-10T09:59:48;1.50;99.90
27858;DHT22;16852;51.446;6.528;2022-12-10T10:01:57;1.50;99.90
27858;DHT22;16852;51.446;6.528;2022-12-10T10:03:59;1.50;99.90
27858;DHT22;16852;51.446;6.528;2022-12-10T10:06:02;1.50;99.90
27858;DHT22;16852;51.446;6.528;2022-12-10T10:08:17;1.50;99.90
27858;DHT22;16852;51.446;6.528;2022-12-10T10:12:27;1.50;99.90
27858;DHT22;16852;51.446;6.528;2022-12-10T10:14:29;1.50;99.90
27858;DHT22;16852;51.446;6.528;2022-12-10T10:16:51;1.60;99.90
27858;DHT22;16852;51.446;6.528;2022-12-10T10:19:01;1.50;99.90
27858;DHT22;16852;51.446;6.528;2022-12-10T10:21:02;1.60;99.90
27858;DHT22;16852;51.446;6.528;2022-12-10T10:23:03;1.60;99.90
27858;DHT22;16852;51.446;6.528;2022-12-10T10:25:05;1.70;99.90
27858;DHT22;16852;51.446;6.528;2022-12-10T10:27:14;1.70;99.90
27858;DHT22;16852;51.446;6.528;2022-12-10T10:29:17;1.70;99.90
27858;DHT22;16852;51.446;6.528;2022-12-10T10:31:25;1.70;99.90
27858;DHT22;16852;51.446;6.528;2022-12-10T10:33:25;1.70;99.90
27858;DHT22;16852;51.446;6.528;2022-12-10T10:35:29;1.70;99.90
27858;DHT22;16852;51.446;6.528;2022-12-10T10:37:41;1.70;99.90
27858;DHT22;16852;51.446;6.528;2022-12-10T10:39:47;1.70;99.90
27858;DHT22;16852;51.446;6.528;2022-12-10T10:41:53;1.60;99.90
27858;DHT22;16852;51.446;6.528;2022-12-10T10:44:00;1.70;99.90
27858;DHT22;16852;51.446;6.528;2022-12-10T10:46:10;1.70;99.90
27858;DHT22;16852;51.446;6.528;2022-12-10T10:48:12;1.70;99.90
27858;DHT22;16852;51.446;6.528;2022-12-10T10:50:14;1.80;99.90
27858;DHT22;16852;51.446;6.528;2022-12-10T10:52:28;1.80;99.90
27858;DHT22;16852;51.446;6.528;2022-12-10T10:54:37;1.80;99.90
27858;DHT22;16852;51.446;6.528;2022-12-10T10:56:41;1.80;99.90
27858;DHT22;16852;51.446;6.528;2022-12-10T11:01:06;1.90;99.90
27858;DHT22;16852;51.446;6.528;2022-12-10T11:03:07;1.90;99.90
27858;DHT22;16852;51.446;6.528;2022-12-10T11:05:19;1.90;99.90
27858;DHT22;16852;51.446;6.528;2022-12-10T11:09:29;1.80;99.90
27858;DHT22;16852;51.446;6.528;2022-12-10T11:11:39;1.90;99.90
27858;DHT22;16852;51.446;6.528;2022-12-10T11:13:43;1.90;99.90
27858;DHT22;16852;51.446;6.528;2022-12-10T11:15:44;1.90;99.90
27858;DHT22;16852;51.446;6.528;2022-12-10T11:17:50;2.00;99.90
27858;DHT22;16852;51.446;6.528;2022-12-10T11:20:02;2.00;99.90
27858;DHT22;16852;51.446;6.528;2022-12-10T11:22:22;2.10;99.90
27858;DHT22;16852;51.446;6.528;2022-12-10T11:24:25;2.10;99.90
27858;DHT22;16852;51.446;6.528;2022-12-10T11:29:26;2.20;99.90
27858;DHT22;16852;51.446;6.528;2022-12-10T11:34:21;2.20;99.90
27858;DHT22;16852;51.446;6.528;2022-12-10T11:36:49;2.20;99.90
27858;DHT22;16852;51.446;6.528;2022-12-10T11:41:40;2.20;99.90
27858;DHT22;16852;51.446;6.528;2022-12-10T11:46:39;2.20;99.90
27858;DHT22;16852;51.446;6.528;2022-12-10T11:49:01;2.20;99.90
27858;DHT22;16852;51.446;6.528;2022-12-10T11:51:08;2.20;99.90
27858;DHT22;16852;51.446;6.528;2022-12-10T12:00:26;2.30;99.90
27858;DHT22;16852;51.446;6.528;2022-12-10T12:13:01;2.40;99.90
27858;DHT22;16852;51.446;6.528;2022-12-10T12:15:22;2.40;99.90
27858;DHT22;16852;51.446;6.528;2022-12-10T12:17:43;2.40;99.90
27858;DHT22;16852;51.446;6.528;2022-12-10T12:20:33;2.40;99.90
27858;DHT22;16852;51.446;6.528;2022-12-10T12:22:36;2.40;99.90
27858;DHT22;16852;51.446;6.528;2022-12-10T12:24:39;2.40;99.90
27858;DHT22;16852;51.446;6.528;2022-12-10T12:29:45;2.40;99.90
27858;DHT22;16852;51.446;6.528;2022-12-10T12:31:59;2.50;99.90
27858;DHT22;16852;51.446;6.528;2022-12-10T12:34:18;2.40;99.90
27858;DHT22;16852;51.446;6.528;2022-12-10T12:36:26;2.50;99.90
27858;DHT22;16852;51.446;6.528;2022-12-10T12:40:44;2.40;99.90
27858;DHT22;16852;51.446;6.528;2022-12-10T12:43:12;2.50;99.90
27858;DHT22;16852;51.446;6.528;2022-12-10T12:45:25;2.50;99.90
27858;DHT22;16852;51.446;6.528;2022-12-10T12:47:48;2.50;99.90
27858;DHT22;16852;51.446;6.528;2022-12-10T12:49:49;2.50;99.90
27858;DHT22;16852;51.446;6.528;2022-12-10T12:54:03;2.60;99.90
27858;DHT22;16852;51.446;6.528;2022-12-10T12:56:25;2.50;99.90
27858;DHT22;16852;51.446;6.528;2022-12-10T12:58:47;2.60;99.90
27858;DHT22;16852;51.446;6.528;2022-12-10T13:00:55;2.60;99.90
27858;DHT22;16852;51.446;6.528;2022-12-10T13:03:27;2.60;99.90
27858;DHT22;16852;51.446;6.528;2022-12-10T13:05:32;2.60;99.90
27858;DHT22;16852;51.446;6.528;2022-12-10T13:07:35;2.60;99.90
27858;DHT22;16852;51.446;6.528;2022-12-10T13:10:07;2.60;99.90
27858;DHT22;16852;51.446;6.528;2022-12-10T13:18:44;2.70;99.90
27858;DHT22;16852;51.446;6.528;2022-12-10T13:23:04;2.50;99.90
27858;DHT22;16852;51.446;6.528;2022-12-10T13:25:12;2.50;99.90
27858;DHT22;16852;51.446;6.528;2022-12-10T13:27:32;2.50;99.90
27858;DHT22;16852;51.446;6.528;2022-12-10T13:29:56;2.60;99.90
27858;DHT22;16852;51.446;6.528;2022-12-10T13:32:14;2.60;99.90
27858;DHT22;16852;51.446;6.528;2022-12-10T13:34:22;2.60;99.90
27858;DHT22;16852;51.446;6.528;2022-12-10T13:36:34;2.50;99.90
27858;DHT22;16852;51.446;6.528;2022-12-10T13:38:40;2.50;99.90
27858;DHT22;16852;51.446;6.528;2022-12-10T13:40:42;2.60;99.90
27858;DHT22;16852;51.446;6.528;2022-12-10T13:45:47;2.60;99.90
27858;DHT22;16852;51.446;6.528;2022-12-10T13:48:15;2.60;99.90
27858;DHT22;16852;51.446;6.528;2022-12-10T13:50:42;2.60;99.90
27858;DHT22;16852;51.446;6.528;2022-12-10T13:55:22;2.60;99.90
27858;DHT22;16852;51.446;6.528;2022-12-10T13:59:55;2.70;99.90
27858;DHT22;16852;51.446;6.528;2022-12-10T14:04:41;2.60;99.90
27858;DHT22;16852;51.446;6.528;2022-12-10T14:06:45;2.70;99.90
27858;DHT22;16852;51.446;6.528;2022-12-10T14:11:02;2.70;99.90
27858;DHT22;16852;51.446;6.528;2022-12-10T14:13:05;2.70;99.90
27858;DHT22;16852;51.446;6.528;2022-12-10T14:15:08;2.80;99.90
27858;DHT22;16852;51.446;6.528;2022-12-10T14:17:18;2.80;99.90
27858;DHT22;16852;51.446;6.528;2022-12-10T14:19:27;2.80;99.90
27858;DHT22;16852;51.446;6.528;2022-12-10T14:21:36;2.80;99.90
27858;DHT22;16852;51.446;6.528;2022-12-10T14:23:46;2.90;99.90
27858;DHT22;16852;51.446;6.528;2022-12-10T14:25:47;2.80;99.90
27858;DHT22;16852;51.446;6.528;2022-12-10T14:27:53;2.80;99.90
27858;DHT22;16852;51.446;6.528;2022-12-10T14:29:59;2.80;99.90
27858;DHT22;16852;51.446;6.528;2022-12-10T14:32:01;2.80;99.90
27858;DHT22;16852;51.446;6.528;2022-12-10T14:34:08;2.80;99.90
27858;DHT22;16852;51.446;6.528;2022-12-10T14:36:33;2.80;99.90
27858;DHT22;16852;51.446;6.528;2022-12-10T14:38:34;2.80;99.90
27858;DHT22;16852;51.446;6.528;2022-12-10T14:40:41;2.80;99.90
27858;DHT22;16852;51.446;6.528;2022-12-10T14:42:42;2.80;99.90
27858;DHT22;16852;51.446;6.528;2022-12-10T14:44:43;2.70;99.90
27858;DHT22;16852;51.446;6.528;2022-12-10T14:46:47;2.80;99.90
27858;DHT22;16852;51.446;6.528;2022-12-10T14:48:50;2.80;99.90
27858;DHT22;16852;51.446;6.528;2022-12-10T14:50:50;2.80;99.90